Elmaton, TX (77440)

12:06 PM CDT on July 03, 2015 (GMT -0500)
Selkirk Island | | Change Station
CLOSE
Current Station
Personal Weather Station
Location: Bay City, TX
Elevation: 43 ft
Nearby Weather Stations

Elev 43 ft 28.77 °N, 95.99 °W | Updated 9 minutes ago

Partly Cloudy
Partly Cloudy
91.0 °F
Feels Like 103 °F
N
6.3
Wind Variable Wind from NNE

Today
High -- | Low -- °F
--% Chance of Precip.
Yesterday
High -- | Low -- °F
Precip. -- in
6:30 AM 8:26 PM
Waning Gibbous, 97% visible
Pressure 30.00 in
Visibility 7.0 miles
Clouds Few 2300 ft
Scattered Clouds 2800 ft
Mostly Cloudy 3600 ft
Heat Index 103 °F
Dew Point 76 °F
Humidity 62%
Rainfall 0.00 in
Snow Depth Not available.
UV 6 out of 12
Pollen 3.90 out of 12
Air Quality Not available.
Flu Activity Not available.
METAR KPSX 031653Z AUTO 17008KT 7SM FEW023 SCT028 BKN036 31/25 A3000 RMK AO2 SLP159 T03060250

More Conditions Fewer Conditions

Pressure 30.00 in
Visibility 7.0 miles
Clouds Few 2300 ft
Scattered Clouds 2800 ft
Mostly Cloudy 3600 ft
Heat Index 103 °F
Dew Point 76 °F
Humidity 62%
Rainfall 0.00 in
Snow Depth Not available.
UV 6 out of 12
Pollen 3.90 out of 12
Air Quality Not available.
Flu Activity Not available.
METAR KPSX 031653Z AUTO 17008KT 7SM FEW023 SCT028 BKN036 31/25 A3000 RMK AO2 SLP159 T03060250

More Conditions Fewer Conditions

10-Day Weather Forecast

×

Almanac

Astronomy

Jul. 03, 2015 Rise Set
Actual Time
Civil Twilight
Nautical Twilight
Astronomical Twilight
Moon
Length of Visible Light
Length of Day
Tomorrow will be .
, % of the Moon is Illuminated

Today's Extremes

State Highs State Lows

Community

WunderPhotos

Upload Photos

1,834,702 photos uploaded!

WunderBlogs® & News

Nearby

Air Quality

  Air Quality AQ Index Pollutant
Not available.

Snow Depth

Station Depth Elevation

Earthquake Activity

City Distance Mag. Time & Date
Minimum magnitude displayed is 2.5.

Coastal Water Temperatures

Place Temperature

Stations

Nearby Weather Stations

Station Location Temp. Windchill Dew Point Humidity Wind Precip. Elev Updated Type